Aviation Digital Data Service (ADDS)

Output produced by METARs form (0507 UTC 28 August 2016)
found at http://aviationweather.gov/adds/metars/
 
KDET 280306Z 2803/2824 14005KT 6SM BR FEW007 
     TEMPO 2804/2806 3SM BR SKC 
     FM280700 20003KT 1SM BR SCT007 
     FM281000 23005KT 3SM BR BKN007 
     FM281400 25007KT P6SM BKN020 OVC040 
     FM281700 27010KT P6SM BKN040 
     FM282000 30010KT P6SM SCT040